Pahrump, Nevada Weather observations

Data are for observation ending at time listed.
 Day   Time    Ave.   Ave.  Ave.  Vector   Max.   Stn.    Total    Solar   Ave.  
  of    of     Air    Rel.  Wind   Wind    Wind   Baro.  Precip.   Rad.    Soil  
Year   Day     Temp.  Hum.  Speed  Dir.    Gust   Pres.                    Temp. 
2014   (PST)    F      %     mph   deg.    mph     mb.     in.     W/m2     F   
------------------------------------------------------------------------------
 326    0:50   44.7    49    0.9    19      1.6   921.9    0.00       0    54.6
 326    1:00   44.6    49    1.5    33      2.2   921.9    0.00       0    54.6
 326    1:10   44.7    49    2.0    21      3.5   921.8    0.00       0    54.5
 326    1:20   44.7    49    1.3    14      3.5   921.8    0.00       0    54.4
 326    1:30   44.3    50    0.2   276      1.5   921.7    0.00       0    54.3
 326    1:40   43.5    54    0.4   280      2.0   921.8    0.00       0    54.2
 326    1:50   42.8    55    0.1   169      0.9   921.9    0.00       0    54.1
 326    2:00   43.3    52    0.9   162      1.5   921.9    0.00       0    54.0
 326    2:10   43.6    50    0.2   144      0.8   921.9    0.00       0    54.0
 326    2:20   43.2    49    1.0   176      1.8   921.9    0.00       0    53.9
 326    2:30   42.8    53    1.6   218      2.4   921.9    0.00       0    53.8
 326    2:40   43.0    54    1.8   191      2.9   921.7    0.00       0    53.7
 326    2:50   43.0    52    1.8   151      2.9   921.6    0.00       0    53.6
 326    3:00   42.7    52    1.1   182      2.2   921.6    0.00       0    53.5
 326    3:10   42.5    53    0.9   172      1.8   921.6    0.00       0    53.5
 326    3:20   42.4    52    0.3   192      1.1   921.6    0.00       0    53.4
 326    3:30   42.1    51    1.2   117      2.7   921.5    0.00       0    53.3
 326    3:40   42.2    52    1.0    69      2.5   921.5    0.00       0    53.2
 326    3:50   42.2    52    1.0    62      1.9   921.5    0.00       0    53.2
 326    4:00   42.2    51    0.1    64      0.7   921.5    0.00       0    53.1
 326    4:10   42.0    52    0.4    55      1.8   921.5    0.00       0    53.0
 326    4:20   41.8    53    1.0   356      2.2   921.6    0.00       0    53.0
 326    4:30   41.1    54    1.6     5      2.7   921.5    0.00       0    52.9
 326    4:40   40.6    54    1.6    10      3.1   921.6    0.00       0    52.8
 326    4:50   40.7    55    1.0     4      3.0   921.7    0.00       0    52.7
 326    5:00   40.8    55    1.1   350      2.2   921.6    0.00       0    52.7
 326    5:10   39.8    57    1.4   278      2.7   921.7    0.00       0    52.6
 326    5:20   38.8    59    1.4   283      2.4   921.6    0.00       0    52.5
 326    5:30   39.4    58    1.2   122      2.6   921.4    0.00       0    52.4
 326    5:40   40.5    55    2.0   197      2.9   921.3    0.00       0    52.3
 326    5:50   41.5    54    3.5   194      5.8   921.2    0.00       0    52.3
 326    6:00   41.4    54    2.9   216      4.9   921.3    0.00       0    52.2
 326    6:10   41.1    55    1.2   190      2.6   921.5    0.00       1    52.1
 326    6:20   40.9    54    1.0    45      2.1   921.6    0.00       3    52.0
 326    6:30   40.0    54    1.7    36      3.1   921.7    0.00       3    52.0
 326    6:40   39.5    56    0.9    19      1.6   921.8    0.00       7    51.9
 326    6:50   40.4    54    0.7    64      1.8   921.9    0.00      19    51.9
 326    7:00   42.6    50    1.3   122      2.3   921.7    0.00      37    51.8
 326    7:10   44.7    47    1.9   158      2.9   921.4    0.00      66    51.8
 326    7:20   46.4    45    1.9   178      2.8   921.2    0.00      99    51.7
 326    7:30   49.0    42    1.5   239      2.7   921.3    0.00     117    51.8
 326    7:40   50.2    41    2.7   272      6.1   921.6    0.00     159    51.8
 326    7:50   50.3    40    2.6   275      6.1   921.9    0.00     190    51.9
 326    8:00   48.8    42    3.0   285      5.3   922.5    0.00     221    52.1
 326    8:10   46.3    45    2.8   304      4.9   923.0    0.00     206    52.2
 326    8:20   45.6    46    2.0   355      4.2   923.3    0.00     275    52.4
 326    8:30   45.6    48    3.0    76      4.7   923.0    0.00     245    52.6
 326    8:40   47.0    46    1.7    71      3.4   922.9    0.00     282    52.9
 326    8:50   50.4    41    1.1    94      2.3   922.8    0.00     310    53.1
 326    9:00   52.8    37    1.4   117      2.5   922.7    0.00     243    53.3
 326    9:10   55.2    34    1.0   262      3.6   922.9    0.00     387    53.6
 326    9:20   56.8    33    2.8   282      6.0   923.0    0.00     434    53.8
 326    9:30   54.9    36    3.1   285      6.5   923.6    0.00     460    54.0
 326    9:40   56.7    34    3.2   267      6.5   923.8    0.00     284    54.1
 326    9:50   58.1    32    1.5   300      3.8   924.0    0.00      97    54.2
 326   10:00   56.4    34    1.1   311      2.9   924.1    0.00     499    54.2
 326   10:10   57.2    33    1.2    93      2.9   923.9    0.00     496    54.2
 326   10:20   58.7    31    1.6    90      5.0   923.8    0.00     530    54.2
 326   10:30   58.2    32    2.1    85      4.2   923.6    0.00     573    54.4
 326   10:40   59.8    30    2.2   128      4.6   923.5    0.00     460    54.4
 326   10:50   59.6    31    3.0   183      7.2   923.3    0.00     329    54.5
 326   11:00   59.8    31    4.0   170      7.5   923.0    0.00     463    54.7
 326   11:10   60.3    30    5.7   181      8.6   922.3    0.00     483    54.8
 326   11:20   61.5    29    5.6   169     10.0   922.2    0.00     445    55.1
 326   11:30   62.1    29    6.0   171     10.2   921.9    0.00     462    55.4
 326   11:40   63.4    28    7.2   167     10.7   921.3    0.00     493    55.7
 326   11:50   64.7    26    7.0   170     11.9   921.3    0.00     452    56.0
 326   12:00   66.0    22    7.6   177     13.0   921.3    0.00     638    56.3
 326   12:10   66.3    21    8.3   189     16.9   921.2    0.00     609    56.7
 326   12:20   66.8    21    8.2   209     14.5   921.3    0.00     612    57.1
 326   12:30   66.9    21    7.3   184     12.8   921.4    0.00     599    57.5
 326   12:40   67.3    20    7.9   180     13.4   921.3    0.00     597    57.9
 326   12:50   67.2    20    7.0   195     12.6   921.3    0.00     587    58.3
 326   13:00   67.2    20    6.9   204     12.9   920.9    0.00     576    58.6
 326   13:10   67.3    20    5.7   205     12.1   920.7    0.00     531    58.8
 326   13:20   67.4    20    5.7   203     10.8   920.3    0.00     535    58.9
 326   13:30   67.7    20    8.3   191     15.2   919.8    0.00     523    58.9
 326   13:40   67.5    20    6.5   196     12.9   919.8    0.00     504    58.9
 326   13:50   67.5    21    7.1   200     12.9   919.6    0.00     446    59.0
 326   14:00   67.0    22    9.1   196     15.6   919.1    0.00     464    58.9
 326   14:10   66.4    23    8.4   200     16.0   919.0    0.00     413    58.9
 326   14:20   66.3    24    7.7   198     14.2   919.0    0.00     377    58.9
 326   14:30   66.2    24    7.8   206     13.6   918.8    0.00     382    58.9
 326   14:40   66.1    24    7.3   200     12.8   919.0    0.00     109    58.9
 326   14:50   65.9    25    7.5   197     13.7   919.0    0.00      30    58.9
 326   15:00   65.8    25    6.2   202     11.3   918.9    0.00      29    58.9
 326   15:10   65.5    26    5.8   206     12.2   918.9    0.00      25    58.9
 326   15:20   65.5    26    5.0   194     11.5   918.9    0.00      23    58.9
 326   15:30   65.3    26    5.5   194     10.8   919.0    0.00      23    58.9
 326   15:40   65.1    27    4.9   183      8.5   919.2    0.00      23    58.8
 326   15:50   65.0    27    3.7   192      6.9   919.1    0.00      19    58.8
 326   16:00   64.7    27    5.3   182      9.7   918.9    0.00      17    58.8
 326   16:10   64.5    28    5.8   177      8.5   918.7    0.00      16    58.7
 326   16:20   64.1    28    4.8   162      7.7   918.6    0.00      11    58.7
 326   16:30   63.4    29    5.4   130      8.4   918.6    0.00       9    58.7
 326   16:40   62.7    30    5.3   125      8.3   918.7    0.00       3    58.6
 326   16:50   62.1    30    5.6   131      8.8   918.7    0.00       3    58.6
 326   17:00   61.7    31    6.6   136      9.8   918.6    0.00       1    58.5
 326   17:10   61.6    31    5.8   139      9.6   918.2    0.00       0    58.5
 326   17:20   61.5    31    5.6   148      8.3   918.1    0.00       0    58.4
 326   17:30   61.5    31    4.6   160      9.0   918.1    0.00       0    58.3
 326   17:40   61.5    31    5.5   179      7.9   918.1    0.00       0    58.3
 326   17:50   61.0    32    4.5   161      7.2   918.1    0.00       0    58.2
 326   18:00   60.7    33    4.1   157      6.3   918.0    0.00       0    58.1
 326   18:10   59.8    34    3.4   160      5.0   918.1    0.00       0    58.1
 326   18:20   59.2    34    3.0   154      5.0   918.1    0.00       0    58.0
 326   18:30   57.7    36    3.1   116      4.2   918.0    0.00       0    58.0
 326   18:40   57.6    36    3.2    95      5.6   918.1    0.00       0    57.8
 326   18:50   57.1    36    2.1   109      3.1   918.0    0.00       0    57.8
 326   19:00   56.6    38    2.0   194      5.0   918.0    0.00       0    57.7
 326   19:10   54.9    40    1.4   299      4.0   917.9    0.00       0    57.6
 326   19:20   55.1    40    1.5   309      3.4   918.0    0.00       0    57.5
 326   19:30   53.4    42    1.2   360      3.7   918.0    0.00       0    57.4
 326   19:40   52.6    42    1.2    23      2.3   918.0    0.00       0    57.3
 326   19:50   52.4    43    1.3    52      2.9   918.2    0.00       0    57.2
 326   20:00   52.8    44    1.2   326      2.3   918.2    0.00       0    57.1
 326   20:10   51.5    44    0.8    36      2.7   918.3    0.00       0    57.0
 326   20:20   50.9    45    1.4    67      2.9   918.3    0.00       0    56.8
 326   20:30   51.6    46    3.0    74      6.3   918.4    0.00       0    56.7
 326   20:40   52.4    45    0.6   102      2.0   918.6    0.00       0    56.6
 326   20:50   52.0    46    2.2    68      3.4   918.6    0.00       0    56.5
 326   21:00   51.7    47    1.5    64      4.6   918.7    0.00       0    56.4
 326   21:10   51.3    48    1.9   341      4.7   918.9    0.00       0    56.3
 326   21:20   50.4    49    1.8    30      3.5   919.0    0.00       0    56.2
 326   21:30   50.5    48    2.0    79      5.3   919.0    0.00       0    56.1
 326   21:40   51.4    48    3.5    83      6.1   919.2    0.00       0    56.0
 326   21:50   52.1    47    2.4    69      5.6   919.3    0.00       0    56.0
 326   22:00   51.0    48    1.1    71      2.6   919.4    0.00       0    55.9
 326   22:10   50.7    49    1.3    68      2.5   919.4    0.00       0    55.8
 326   22:20   50.3    49    1.2    64      4.8   919.4    0.00       0    55.7
 326   22:30   50.0    50    2.3    25      4.4   919.6    0.00       0    55.6
 326   22:40   50.5    49    1.9    12      3.4   919.7    0.00       0    55.5
 326   22:50   49.5    50    2.4   334      4.5   920.0    0.00       0    55.4
 326   23:00   48.6    52    2.2    16      4.0   920.1    0.00       0    55.3
 326   23:10   48.0    53    1.7    22      2.8   920.1    0.00       0    55.2
 326   23:20   48.6    52    2.0   306      5.3   920.1    0.00       0    55.2
 326   23:30   49.4    49    4.6   299      8.6   920.4    0.00       0    55.1
 326   23:40   51.5    46    5.6   298     11.0   920.7    0.00       0    55.0
 326   23:50   53.0    41    5.7   300     13.1   920.7    0.00       0    54.9
 327    0:00   52.2    42    7.6   300     13.9   921.0    0.00       0    54.9
 327    0:10   51.9    42    4.9   286     11.0   921.3    0.00       0    54.8
 327    0:20   52.4    40    6.0   296     10.4   921.3    0.00       0    54.8
 327    0:30   53.3    35    6.8   304     12.2   921.6    0.00       0    54.8
 327    0:40   54.3    30    7.0   318     12.6   921.9    0.00       0    54.7

Return to Pahrump, Nevada graphs page.


Western Regional Climate Center,wrcc@dri.edu